Time;durP1;ratioP1;P1;durP2;ratioP2;P2;SDS_P1;SDS_P2;PMS_P1;PMS_P2;Temp;Humidity;BMP_temperature;BMP_pressure;BME280_temperature;BME280_humidity;BME280_pressure;Samples;Min_cycle;Max_cycle;Signal;HPM_P1;HPM_P2
2021/03/01 00:02:25;;;;;;;11.80;6.25;;;-0.90;99.90;;;;;;5077970;28;20028;-74
2021/03/01 00:04:51;;;;;;;13.63;6.13;;;-0.90;99.90;;;;;;5075555;28;20370;-74
2021/03/01 00:07:17;;;;;;;13.85;6.07;;;-0.80;99.90;;;;;;5071760;28;20041;-74
2021/03/01 00:09:44;;;;;;;16.17;6.43;;;-0.80;99.90;;;;;;5071941;28;20461;-74
2021/03/01 00:12:10;;;;;;;20.58;6.70;;;-0.90;99.90;;;;;;5072056;28;20028;-74
2021/03/01 00:14:36;;;;;;;18.42;6.22;;;-0.90;99.90;;;;;;5071522;28;20040;-74
2021/03/01 00:17:03;;;;;;;17.95;5.75;;;-1.00;99.90;;;;;;5071660;28;20028;-74
2021/03/01 00:19:29;;;;;;;12.80;6.20;;;-1.00;99.90;;;;;;5071466;28;20466;-74
2021/03/01 00:21:55;;;;;;;14.35;6.15;;;-1.00;99.90;;;;;;5089173;28;20059;-74
2021/03/01 00:24:21;;;;;;;14.60;5.93;;;-1.00;99.90;;;;;;5075657;28;20024;-74
2021/03/01 00:26:47;;;;;;;15.55;5.60;;;-1.00;99.90;;;;;;5071901;28;20036;-74
2021/03/01 00:29:13;;;;;;;15.27;5.93;;;-1.00;99.90;;;;;;5083531;28;20038;-74
2021/03/01 00:31:40;;;;;;;20.33;7.10;;;-1.10;99.90;;;;;;5084322;28;20040;-73
2021/03/01 00:34:06;;;;;;;15.55;5.95;;;-1.10;99.90;;;;;;5088157;28;20029;-73
2021/03/01 00:36:32;;;;;;;14.05;6.22;;;-1.20;99.90;;;;;;5075382;28;20037;-74
2021/03/01 00:39:00;;;;;;;12.80;5.28;;;-1.20;99.90;;;;;;5092122;28;20047;-74
2021/03/01 00:41:26;;;;;;;16.60;6.85;;;-1.20;99.90;;;;;;5082121;28;20041;-74
2021/03/01 00:43:52;;;;;;;15.13;7.35;;;-1.20;99.90;;;;;;5101929;28;20102;-73
2021/03/01 00:46:18;;;;;;;15.13;6.22;;;-1.20;99.90;;;;;;5093121;28;20036;-75
2021/03/01 00:48:44;;;;;;;14.07;6.15;;;-1.20;99.90;;;;;;5094017;28;20041;-73
2021/03/01 00:51:11;;;;;;;15.15;5.93;;;-1.20;99.90;;;;;;5075050;28;20386;-74
2021/03/01 00:53:37;;;;;;;12.00;5.07;;;-1.10;99.90;;;;;;5089784;28;20283;-74
2021/03/01 00:56:04;;;;;;;13.05;5.80;;;-1.10;99.90;;;;;;5073052;28;20032;-74
2021/03/01 00:58:30;;;;;;;17.52;6.00;;;-1.20;99.90;;;;;;5085501;28;20033;-75
2021/03/01 01:00:56;;;;;;;16.00;6.70;;;-1.20;99.90;;;;;;5073621;28;20040;-74
2021/03/01 01:03:25;;;;;;;19.98;7.35;;;-1.20;99.90;;;;;;5086302;28;20044;-74
2021/03/01 01:06:09;;;;;;;16.10;6.13;;;-1.20;99.90;;;;;;5073607;28;20040;-74
2021/03/01 01:08:35;;;;;;;19.25;6.68;;;-1.20;99.90;;;;;;5087371;28;20039;-75
2021/03/01 01:11:02;;;;;;;15.05;6.70;;;-1.30;99.90;;;;;;5074751;28;20036;-74
2021/03/01 01:13:28;;;;;;;15.45;6.63;;;-1.30;99.90;;;;;;5074239;28;20512;-74
2021/03/01 01:15:54;;;;;;;15.82;6.97;;;-1.30;99.90;;;;;;5091266;28;20036;-74
2021/03/01 01:18:21;;;;;;;14.68;5.85;;;-1.30;99.90;;;;;;5074177;28;20036;-75
2021/03/01 01:20:47;;;;;;;11.45;5.15;;;-1.40;99.90;;;;;;5074366;28;20040;-75
2021/03/01 01:23:14;;;;;;;14.93;6.78;;;-1.40;99.90;;;;;;5074073;28;20051;-74
2021/03/01 01:25:40;;;;;;;19.42;7.07;;;-1.40;99.90;;;;;;5074005;28;20035;-74
2021/03/01 01:28:06;;;;;;;17.45;6.93;;;-1.40;99.90;;;;;;5074316;28;20477;-74
2021/03/01 01:30:32;;;;;;;20.77;7.53;;;-1.50;99.90;;;;;;5073850;28;20035;-75
2021/03/01 01:32:59;;;;;;;18.50;6.53;;;-1.60;99.90;;;;;;5073862;28;20029;-74
2021/03/01 01:35:25;;;;;;;22.02;8.52;;;-1.60;99.90;;;;;;5082668;28;20381;-74
2021/03/01 01:37:51;;;;;;;16.52;7.88;;;-1.60;99.90;;;;;;5085377;28;20035;-74
2021/03/01 01:40:20;;;;;;;18.15;7.78;;;-1.70;99.90;;;;;;5073768;28;20037;-74
2021/03/01 01:42:47;;;;;;;17.08;8.30;;;-1.70;99.90;;;;;;5074176;28;20036;-74
2021/03/01 01:45:16;;;;;;;15.82;7.25;;;-1.70;99.90;;;;;;5073710;28;20493;-74
2021/03/01 01:47:44;;;;;;;17.63;7.13;;;-1.80;99.90;;;;;;5085198;28;20040;-74
2021/03/01 01:50:11;;;;;;;17.35;7.00;;;-1.80;99.90;;;;;;5078665;28;20029;-74
2021/03/01 01:52:38;;;;;;;21.15;7.28;;;-1.80;99.90;;;;;;5074165;28;20029;-74
2021/03/01 01:55:06;;;;;;;20.85;8.65;;;-1.70;99.90;;;;;;5090632;28;20028;-74
2021/03/01 01:57:34;;;;;;;19.08;7.60;;;-1.70;99.90;;;;;;5073609;28;20458;-74
2021/03/01 02:00:00;;;;;;;23.88;9.07;;;-1.70;99.90;;;;;;5073291;28;20473;-74
2021/03/01 02:02:26;;;;;;;20.35;8.50;;;-1.70;99.90;;;;;;5072797;28;20056;-74
2021/03/01 02:04:59;;;;;;;19.20;7.68;;;-1.70;99.90;;;;;;5073618;28;20024;-74
2021/03/01 02:07:35;;;;;;;18.38;8.20;;;-1.80;99.90;;;;;;5072728;28;20378;-75
2021/03/01 02:10:26;;;;;;;19.65;8.15;;;-1.80;99.90;;;;;;5074826;28;20051;-74
2021/03/01 02:13:29;;;;;;;16.63;7.45;;;-1.90;99.90;;;;;;5076486;28;20044;-74
2021/03/01 02:15:57;;;;;;;20.45;7.88;;;-1.90;99.90;;;;;;5076417;28;20025;-74
2021/03/01 02:18:23;;;;;;;18.35;8.13;;;-1.90;99.90;;;;;;5089830;28;20473;-75
2021/03/01 02:20:50;;;;;;;21.83;8.60;;;-1.90;99.90;;;;;;5073128;28;20047;-74
2021/03/01 02:23:17;;;;;;;21.15;8.55;;;-1.90;99.90;;;;;;5073130;28;20032;-74
2021/03/01 02:26:24;;;;;;;18.30;7.50;;;-1.90;99.90;;;;;;5072747;28;20465;-74
2021/03/01 02:28:53;;;;;;;20.02;9.10;;;-1.90;99.90;;;;;;5006107;28;20586;-74
2021/03/01 02:31:22;;;;;;;23.05;8.82;;;-1.90;99.90;;;;;;5061139;28;20047;-74
2021/03/01 02:33:54;;;;;;;20.63;8.70;;;-1.90;99.90;;;;;;5073188;28;20040;-74
2021/03/01 02:36:35;;;;;;;22.20;8.63;;;-2.00;99.90;;;;;;5072452;28;20037;-75
2021/03/01 02:39:05;;;;;;;23.60;9.95;;;-2.00;99.90;;;;;;5080010;28;20143;-74
2021/03/01 02:41:32;;;;;;;21.13;8.05;;;-2.00;99.90;;;;;;5083862;28;20043;-74
2021/03/01 02:43:58;;;;;;;22.80;8.57;;;-2.00;99.90;;;;;;5073185;28;20028;-74
2021/03/01 02:46:25;;;;;;;18.50;8.32;;;-2.00;99.90;;;;;;5072378;28;20033;-75
2021/03/01 02:48:52;;;;;;;18.30;8.60;;;-1.90;99.90;;;;;;5072770;28;20038;-74
2021/03/01 02:51:21;;;;;;;20.40;8.50;;;-2.00;99.90;;;;;;5079652;28;20488;-74
2021/03/01 02:53:48;;;;;;;18.45;8.23;;;-2.00;99.90;;;;;;5072689;28;20470;-74
2021/03/01 02:56:16;;;;;;;20.63;8.95;;;-2.00;99.90;;;;;;5073191;28;20032;-74
2021/03/01 02:58:44;;;;;;;23.23;8.82;;;-2.00;99.90;;;;;;5072290;28;20032;-74
2021/03/01 03:01:11;;;;;;;21.42;8.90;;;-2.00;99.90;;;;;;5072385;28;20067;-74
2021/03/01 03:03:39;;;;;;;21.52;8.48;;;-2.00;99.90;;;;;;5072000;28;20041;-75
2021/03/01 03:06:11;;;;;;;21.13;8.32;;;-2.00;99.90;;;;;;5072502;28;20524;-74
2021/03/01 03:08:38;;;;;;;15.63;8.43;;;-2.00;99.90;;;;;;5071937;28;20474;-74
2021/03/01 03:11:05;;;;;;;18.58;8.75;;;-2.10;99.90;;;;;;5072248;28;20040;-74
2021/03/01 03:13:33;;;;;;;16.85;8.20;;;-2.20;99.90;;;;;;5071620;28;20485;-75
2021/03/01 03:16:01;;;;;;;24.17;10.25;;;-2.20;99.90;;;;;;5072420;28;20032;-74
2021/03/01 03:18:29;;;;;;;16.20;8.10;;;-2.20;99.90;;;;;;5072173;28;20024;-74
2021/03/01 03:20:58;;;;;;;22.15;9.45;;;-2.10;99.90;;;;;;5075571;28;20032;-74
2021/03/01 03:23:25;;;;;;;24.60;9.13;;;-2.10;99.90;;;;;;5077510;28;20400;-74
2021/03/01 03:25:52;;;;;;;18.00;7.95;;;-2.10;99.90;;;;;;5072164;28;20036;-74
2021/03/01 03:28:18;;;;;;;23.35;9.73;;;-2.20;99.90;;;;;;5076447;28;20054;-74
2021/03/01 03:30:45;;;;;;;24.10;8.98;;;-2.10;99.90;;;;;;5076822;28;20450;-74
2021/03/01 03:33:11;;;;;;;26.13;9.52;;;-2.10;99.90;;;;;;5074796;28;20055;-75
2021/03/01 03:35:37;;;;;;;25.30;9.40;;;-2.10;99.90;;;;;;5086430;28;20021;-75
2021/03/01 03:38:08;;;;;;;23.35;8.70;;;-2.10;99.90;;;;;;5072402;28;20037;-74
2021/03/01 03:40:35;;;;;;;21.52;10.07;;;-2.20;99.90;;;;;;5071865;28;20045;-74
2021/03/01 03:43:03;;;;;;;23.23;9.75;;;-2.20;99.90;;;;;;5086820;28;20040;-75
2021/03/01 03:45:30;;;;;;;23.08;10.05;;;-2.20;99.90;;;;;;5071863;28;20037;-75
2021/03/01 03:48:00;;;;;;;18.70;10.20;;;-2.30;99.90;;;;;;5071778;28;20029;-74
2021/03/01 03:50:28;;;;;;;21.17;9.07;;;-2.30;99.90;;;;;;5071672;28;20032;-75
2021/03/01 03:52:58;;;;;;;25.10;10.02;;;-2.30;99.90;;;;;;5072210;28;20086;-74
2021/03/01 03:55:27;;;;;;;26.10;9.93;;;-2.30;99.90;;;;;;5079740;28;20043;-74
2021/03/01 03:58:01;;;;;;;22.60;10.07;;;-2.30;99.90;;;;;;5071926;28;20051;-74
2021/03/01 04:00:32;;;;;;;25.73;9.40;;;-2.30;99.90;;;;;;5070004;28;20119;-75
2021/03/01 04:03:01;;;;;;;22.58;9.38;;;-2.30;99.90;;;;;;5072343;28;20037;-74
2021/03/01 04:05:28;;;;;;;23.90;9.93;;;-2.30;99.90;;;;;;5075036;28;20044;-75
2021/03/01 04:07:56;;;;;;;20.80;9.07;;;-2.30;99.90;;;;;;5075745;28;20040;-74
2021/03/01 04:10:23;;;;;;;24.92;11.00;;;-2.30;99.90;;;;;;5075181;28;20362;-75
2021/03/01 04:12:53;;;;;;;16.42;8.05;;;-2.40;99.90;;;;;;5075797;28;20035;-74
2021/03/01 04:15:20;;;;;;;20.37;7.70;;;-2.40;99.90;;;;;;5075791;28;20040;-74
2021/03/01 04:17:49;;;;;;;22.58;10.35;;;-2.40;99.90;;;;;;5092864;28;20294;-74
2021/03/01 04:20:22;;;;;;;24.58;8.90;;;-2.40;99.90;;;;;;5076537;28;20040;-74
2021/03/01 04:22:49;;;;;;;17.65;8.85;;;-2.40;99.90;;;;;;5076144;28;20059;-74
2021/03/01 04:25:17;;;;;;;20.38;9.55;;;-2.40;99.90;;;;;;5075219;28;20036;-74
2021/03/01 04:27:43;;;;;;;28.38;10.07;;;-2.60;99.90;;;;;;5078096;28;20043;-74
2021/03/01 04:30:11;;;;;;;22.92;9.35;;;-2.50;99.90;;;;;;5084390;28;20028;-74
2021/03/01 04:32:43;;;;;;;19.08;8.93;;;-2.60;99.90;;;;;;5095471;28;20137;-74
2021/03/01 04:35:12;;;;;;;23.20;9.18;;;-2.60;99.90;;;;;;5085142;28;20036;-74
2021/03/01 04:37:38;;;;;;;25.23;9.98;;;-2.60;99.90;;;;;;5079941;28;20043;-74
2021/03/01 04:40:05;;;;;;;24.40;10.25;;;-2.60;99.90;;;;;;5074928;28;20036;-74
2021/03/01 04:42:33;;;;;;;26.75;10.30;;;-2.50;99.90;;;;;;5081873;28;20045;-74
2021/03/01 04:45:00;;;;;;;22.48;8.75;;;-2.50;99.90;;;;;;5075128;28;20029;-74
2021/03/01 04:47:27;;;;;;;23.75;10.20;;;-2.60;99.90;;;;;;5074865;28;20020;-75
2021/03/01 04:49:54;;;;;;;24.13;9.90;;;-2.60;99.90;;;;;;5074917;28;20040;-74
2021/03/01 04:52:21;;;;;;;30.10;12.52;;;-2.70;99.90;;;;;;5074799;28;20035;-74
2021/03/01 04:54:50;;;;;;;29.58;12.25;;;-2.70;99.90;;;;;;5074624;28;20045;-74
2021/03/01 04:57:19;;;;;;;28.25;12.30;;;-2.70;99.90;;;;;;5086530;28;20032;-74
2021/03/01 04:59:47;;;;;;;24.65;10.57;;;-2.70;99.90;;;;;;5074398;28;20035;-74
2021/03/01 05:02:15;;;;;;;22.15;10.27;;;-2.70;99.90;;;;;;5074781;28;20044;-74
2021/03/01 05:04:41;;;;;;;21.70;8.93;;;-2.70;99.90;;;;;;5086760;28;20420;-74
2021/03/01 05:07:08;;;;;;;20.90;9.73;;;-2.70;99.90;;;;;;5077333;28;20055;-74
2021/03/01 05:09:37;;;;;;;21.65;9.52;;;-2.80;99.90;;;;;;5082446;28;20037;-74
2021/03/01 05:12:03;;;;;;;22.63;10.18;;;-2.80;99.90;;;;;;5092646;28;20036;-74
2021/03/01 05:14:31;;;;;;;24.50;9.70;;;-2.90;99.90;;;;;;5099402;28;20081;-75
2021/03/01 05:17:00;;;;;;;22.58;10.45;;;-2.80;99.90;;;;;;5091561;28;20032;-74
2021/03/01 05:19:29;;;;;;;23.27;10.45;;;-2.80;99.90;;;;;;5084152;28;20397;-74
2021/03/01 05:21:55;;;;;;;23.15;9.52;;;-2.70;99.90;;;;;;5081781;28;20049;-74
2021/03/01 05:24:21;;;;;;;19.95;9.38;;;-2.70;99.90;;;;;;5074585;28;20039;-74
2021/03/01 05:26:48;;;;;;;24.58;9.07;;;-2.80;99.90;;;;;;5073843;28;20045;-72
2021/03/01 05:29:14;;;;;;;20.98;9.65;;;-2.90;99.90;;;;;;5074392;28;20465;-74
2021/03/01 05:31:40;;;;;;;22.83;10.30;;;-2.80;99.90;;;;;;5082641;28;20036;-74
2021/03/01 05:34:06;;;;;;;20.75;9.38;;;-2.80;99.90;;;;;;5073993;28;20032;-74
2021/03/01 05:36:33;;;;;;;20.92;9.35;;;-2.90;99.90;;;;;;5073517;28;20028;-74
2021/03/01 05:38:59;;;;;;;24.10;9.50;;;-2.90;99.90;;;;;;5081104;28;20052;-74
2021/03/01 05:41:26;;;;;;;22.08;9.93;;;-2.90;99.90;;;;;;5073756;28;20040;-73
2021/03/01 05:43:53;;;;;;;24.98;9.48;;;-2.90;99.90;;;;;;5074187;28;20039;-73
2021/03/01 05:46:20;;;;;;;23.85;10.18;;;-2.90;99.90;;;;;;5076789;28;20031;-72
2021/03/01 05:48:47;;;;;;;25.25;9.65;;;-3.00;99.90;;;;;;5085681;28;20048;-73
2021/03/01 05:51:14;;;;;;;22.42;9.18;;;-3.00;99.90;;;;;;5081457;28;20048;-74
2021/03/01 05:53:43;;;;;;;18.60;9.38;;;-2.90;99.90;;;;;;5093097;28;20035;-74
2021/03/01 05:56:10;;;;;;;20.25;9.07;;;-3.00;99.90;;;;;;5073992;28;20036;-73
2021/03/01 05:58:39;;;;;;;20.92;9.82;;;-3.00;99.90;;;;;;5080217;28;20083;-72
2021/03/01 06:01:06;;;;;;;23.38;9.40;;;-2.90;99.90;;;;;;5085887;28;20393;-72
2021/03/01 06:03:34;;;;;;;23.08;10.27;;;-2.90;99.90;;;;;;5084722;28;20040;-72
2021/03/01 06:06:01;;;;;;;21.55;9.13;;;-2.90;99.90;;;;;;5073499;28;20031;-74
2021/03/01 06:08:27;;;;;;;21.80;10.38;;;-2.90;99.90;;;;;;5073287;28;20033;-74
2021/03/01 06:11:02;;;;;;;25.15;11.15;;;-2.90;99.90;;;;;;5073882;28;20051;-73
2021/03/01 06:13:29;;;;;;;26.73;10.98;;;-2.90;99.90;;;;;;5076555;28;20040;-73
2021/03/01 06:15:57;;;;;;;24.15;10.85;;;-2.90;99.90;;;;;;5092743;28;20040;-73
2021/03/01 06:18:24;;;;;;;25.13;10.50;;;-2.90;99.90;;;;;;5073339;28;20032;-73
2021/03/01 06:20:52;;;;;;;26.48;11.23;;;-2.80;99.90;;;;;;5085772;28;20488;-74
2021/03/01 06:23:32;;;;;;;31.98;12.43;;;-2.80;99.90;;;;;;5086784;28;20040;-74
2021/03/01 06:26:20;;;;;;;41.22;16.50;;;-2.80;99.90;;;;;;5080622;28;20028;-74
2021/03/01 06:28:48;;;;;;;51.33;18.48;;;-2.80;99.90;;;;;;5082349;28;20029;-73
2021/03/01 06:31:33;;;;;;;36.45;15.05;;;-2.80;99.90;;;;;;5080861;28;20036;-73
2021/03/01 06:34:21;;;;;;;30.60;14.82;;;-2.80;99.90;;;;;;5073158;28;20063;-73
2021/03/01 06:37:13;;;;;;;26.63;11.82;;;-2.80;99.90;;;;;;5086341;28;20032;-73
2021/03/01 06:39:42;;;;;;;27.83;11.65;;;-2.80;99.90;;;;;;5072170;28;20509;-73
2021/03/01 06:42:18;;;;;;;26.83;11.27;;;-2.70;99.90;;;;;;5077266;28;20039;-73
2021/03/01 06:45:05;;;;;;;24.52;12.10;;;-2.60;99.90;;;;;;5089476;28;20036;-73
2021/03/01 06:47:55;;;;;;;27.50;11.07;;;-2.50;99.90;;;;;;5057815;28;20037;-74
2021/03/01 06:50:41;;;;;;;24.55;9.48;;;-2.40;99.90;;;;;;5079775;28;20039;-72
2021/03/01 06:53:10;;;;;;;27.27;10.40;;;-2.40;99.90;;;;;;5074981;28;20043;-74
2021/03/01 06:55:38;;;;;;;25.02;11.52;;;-2.20;99.90;;;;;;5086735;28;20024;-74
2021/03/01 06:58:18;;;;;;;23.23;10.27;;;-2.10;99.90;;;;;;5072553;28;20031;-74
2021/03/01 07:00:45;;;;;;;19.58;10.10;;;-1.20;99.90;;;;;;5085148;28;20027;-74
2021/03/01 07:03:21;;;;;;;21.48;10.80;;;0.10;99.90;;;;;;5099030;27;20119;-73
2021/03/01 07:05:55;;;;;;;15.52;8.68;;;1.20;99.90;;;;;;5072154;28;20044;-73
2021/03/01 07:08:41;;;;;;;15.63;8.95;;;2.20;99.90;;;;;;5072588;28;20496;-73
2021/03/01 07:11:22;;;;;;;16.40;8.27;;;3.30;99.90;;;;;;5072758;28;20032;-73
2021/03/01 07:13:48;;;;;;;;;;;4.00;98.40;;;;;;5072078;28;20039;-72
2021/03/01 07:16:15;;;;;;;11.75;7.32;;;4.20;93.80;;;;;;5071994;28;19909;-72
2021/03/01 07:18:42;;;;;;;16.48;9.02;;;4.40;91.70;;;;;;5072064;28;20043;-72
2021/03/01 07:21:13;;;;;;;11.48;7.95;;;4.70;90.40;;;;;;5078487;28;20024;-73
2021/03/01 07:23:45;;;;;;;15.23;8.82;;;5.10;88.20;;;;;;5072995;28;20035;-75
2021/03/01 07:26:13;;;;;;;16.35;8.23;;;4.90;86.60;;;;;;5078266;28;20370;-74
2021/03/01 07:28:49;;;;;;;15.60;8.70;;;5.30;86.30;;;;;;5079149;28;20033;-74
2021/03/01 07:31:17;;;;;;;13.48;8.27;;;5.60;84.40;;;;;;5088422;28;20032;-72
2021/03/01 07:33:44;;;;;;;13.82;7.95;;;5.70;83.50;;;;;;5071487;28;20041;-74
2021/03/01 07:36:11;;;;;;;16.27;9.25;;;5.30;83.70;;;;;;5072117;28;20051;-74
2021/03/01 07:38:38;;;;;;;15.98;8.93;;;5.50;83.70;;;;;;5084725;28;20040;-74
2021/03/01 07:41:05;;;;;;;17.35;9.38;;;5.90;83.40;;;;;;5084961;28;20024;-75
2021/03/01 07:43:35;;;;;;;13.25;8.77;;;6.30;81.50;;;;;;5078449;28;20033;-75
2021/03/01 07:46:03;;;;;;;13.48;9.15;;;7.30;79.30;;;;;;5082999;28;20040;-74
2021/03/01 07:48:41;;;;;;;17.40;9.70;;;8.30;74.90;;;;;;5080214;28;20039;-73
2021/03/01 07:51:09;;;;;;;11.93;8.98;;;9.30;70.80;;;;;;5081508;28;20032;-73
2021/03/01 07:53:52;;;;;;;15.13;9.15;;;9.90;66.60;;;;;;5094665;28;20033;-74
2021/03/01 07:56:24;;;;;;;13.18;9.55;;;10.50;65.00;;;;;;5078963;28;20040;-72
2021/03/01 07:59:10;;;;;;;13.02;9.25;;;11.20;62.90;;;;;;5084574;28;20030;-78
2021/03/01 08:01:37;;;;;;;14.70;8.82;;;11.40;60.80;;;;;;5094333;28;20059;-79
2021/03/01 08:04:05;;;;;;;13.50;8.80;;;10.30;62.50;;;;;;5093178;28;20036;-72
2021/03/01 08:06:54;;;;;;;12.13;8.20;;;9.80;64.00;;;;;;5082345;28;20032;-72
2021/03/01 08:09:53;;;;;;;10.73;7.72;;;8.90;66.70;;;;;;5085730;28;20028;-72
2021/03/01 08:12:28;;;;;;;12.82;7.50;;;8.20;69.50;;;;;;5086409;28;20035;-72
2021/03/01 08:14:56;;;;;;;11.80;8.35;;;8.70;68.30;;;;;;5095895;28;20039;-72
2021/03/01 08:17:35;;;;;;;11.60;8.02;;;9.10;67.60;;;;;;5083743;28;20028;-72
2021/03/01 08:20:16;;;;;;;10.68;7.88;;;9.50;66.30;;;;;;5079653;28;20044;-72
2021/03/01 08:23:04;;;;;;;15.52;11.60;;;9.50;65.80;;;;;;5079082;28;20417;-74
2021/03/01 08:25:43;;;;;;;12.48;8.23;;;10.70;63.10;;;;;;5080497;28;20464;-74
2021/03/01 08:28:23;;;;;;;12.18;8.77;;;10.50;61.90;;;;;;5083937;28;20033;-74
2021/03/01 08:30:52;;;;;;;13.00;9.63;;;10.10;63.70;;;;;;5093109;28;20028;-73
2021/03/01 08:33:18;;;;;;;10.52;7.72;;;10.50;62.10;;;;;;5105311;28;20037;-73
2021/03/01 08:35:44;;;;;;;12.23;8.55;;;10.30;62.30;;;;;;5077702;28;20028;-73
2021/03/01 08:38:12;;;;;;;11.70;7.97;;;9.70;64.30;;;;;;5093681;28;20043;-74
2021/03/01 08:40:56;;;;;;;14.30;9.23;;;9.30;65.10;;;;;;5086855;28;20036;-74
2021/03/01 08:43:34;;;;;;;14.38;8.32;;;8.90;65.70;;;;;;5086170;28;20033;-76
2021/03/01 08:46:00;;;;;;;13.57;8.93;;;9.30;65.80;;;;;;5078905;28;20936;-75
2021/03/01 08:48:26;;;;;;;12.65;8.35;;;9.50;65.50;;;;;;5079196;28;20036;-76
2021/03/01 08:50:54;;;;;;;10.93;7.32;;;9.50;65.10;;;;;;5085506;28;20392;-76
2021/03/01 08:53:28;;;;;;;13.52;8.60;;;9.40;64.80;;;;;;5093393;28;20035;-76
2021/03/01 08:55:56;;;;;;;12.68;8.57;;;9.40;65.30;;;;;;5085772;28;20035;-75
2021/03/01 08:58:24;;;;;;;11.93;7.82;;;9.30;66.10;;;;;;5081683;28;20028;-75
2021/03/01 09:00:53;;;;;;;12.10;8.20;;;9.50;65.00;;;;;;5097160;28;20035;-74
2021/03/01 09:03:25;;;;;;;13.10;8.07;;;9.00;66.10;;;;;;5096623;28;20044;-73
2021/03/01 09:06:01;;;;;;;13.85;8.63;;;8.80;66.50;;;;;;5087992;28;20035;-73
2021/03/01 09:08:38;;;;;;;13.20;8.32;;;9.00;67.30;;;;;;5084568;28;20020;-73
2021/03/01 09:11:16;;;;;;;10.93;8.63;;;9.20;66.70;;;;;;5090979;28;20024;-73
2021/03/01 09:13:44;;;;;;;11.93;8.50;;;9.20;67.90;;;;;;5074418;28;20188;-74
2021/03/01 09:16:17;;;;;;;13.77;8.77;;;9.50;66.70;;;;;;5074670;28;20029;-73
2021/03/01 09:18:46;;;;;;;12.50;8.60;;;9.70;65.80;;;;;;5088854;28;20040;-73
2021/03/01 09:21:15;;;;;;;13.00;8.90;;;10.10;64.20;;;;;;5075715;28;20503;-74
2021/03/01 09:23:50;;;;;;;12.85;9.05;;;9.80;64.50;;;;;;5073926;28;20028;-80
2021/03/01 09:26:30;;;;;;;15.00;9.65;;;9.70;66.00;;;;;;5081884;28;20416;-71
2021/03/01 09:29:11;;;;;;;12.45;9.82;;;9.80;66.00;;;;;;5085084;28;20381;-75
2021/03/01 09:31:59;;;;;;;17.42;10.50;;;10.20;65.50;;;;;;5103521;28;20059;-75
2021/03/01 09:34:27;;;;;;;13.38;8.80;;;11.30;62.00;;;;;;5096776;28;20051;-75
2021/03/01 09:36:53;;;;;;;11.65;8.30;;;10.90;61.50;;;;;;5078592;28;20047;-75
2021/03/01 09:39:25;;;;;;;11.05;7.75;;;10.90;61.70;;;;;;5107251;28;20050;-76
2021/03/01 09:41:55;;;;;;;12.25;8.38;;;11.10;61.70;;;;;;5088273;28;20048;-74
2021/03/01 09:44:28;;;;;;;13.10;8.70;;;12.30;58.20;;;;;;5081701;28;20032;-75
2021/03/01 09:46:59;;;;;;;12.25;7.82;;;12.90;57.00;;;;;;5078007;28;20037;-75
2021/03/01 09:49:28;;;;;;;12.05;7.47;;;12.30;57.70;;;;;;5073741;28;20043;-74
2021/03/01 09:51:55;;;;;;;12.65;8.70;;;11.70;58.20;;;;;;5073723;28;20039;-74
2021/03/01 09:54:23;;;;;;;10.88;7.72;;;11.00;59.10;;;;;;5086068;28;20373;-74
2021/03/01 09:56:53;;;;;;;11.95;8.30;;;10.80;60.00;;;;;;5073406;28;20321;-75
2021/03/01 09:59:43;;;;;;;13.75;9.48;;;10.70;60.50;;;;;;5081319;28;20081;-74
2021/03/01 10:02:10;;;;;;;12.07;9.00;;;10.10;61.70;;;;;;5092461;28;20473;-74
2021/03/01 10:04:37;;;;;;;14.07;8.82;;;9.50;63.90;;;;;;5082929;28;20087;-74
2021/03/01 10:07:23;;;;;;;15.73;9.55;;;9.40;64.70;;;;;;5076200;28;20047;-74
2021/03/01 10:09:53;;;;;;;14.85;9.13;;;8.80;66.40;;;;;;5073514;28;20033;-75
2021/03/01 10:12:21;;;;;;;15.93;9.35;;;8.90;67.30;;;;;;5073199;28;20381;-74
2021/03/01 10:14:48;;;;;;;15.50;9.35;;;8.80;67.60;;;;;;5072951;28;20032;-75
2021/03/01 10:17:15;;;;;;;17.00;10.35;;;8.90;67.80;;;;;;5073250;28;20466;-74
2021/03/01 10:19:42;;;;;;;16.90;10.32;;;8.90;68.50;;;;;;5073268;28;20024;-75
2021/03/01 10:22:08;;;;;;;17.00;10.55;;;8.80;68.30;;;;;;5082085;28;20040;-74
2021/03/01 10:24:48;;;;;;;17.67;9.10;;;8.70;69.00;;;;;;5081025;28;20036;-75
2021/03/01 10:27:18;;;;;;;15.63;9.75;;;8.80;68.50;;;;;;5073439;28;20078;-74
2021/03/01 10:29:47;;;;;;;17.00;9.60;;;9.00;68.70;;;;;;5082809;28;20031;-74
2021/03/01 10:32:32;;;;;;;15.70;9.10;;;9.00;68.50;;;;;;5075516;28;20040;-75
2021/03/01 10:34:58;;;;;;;17.23;10.23;;;9.20;67.90;;;;;;5073308;28;20028;-74
2021/03/01 10:37:26;;;;;;;15.48;8.75;;;9.30;67.10;;;;;;5080362;28;20040;-75
2021/03/01 10:39:56;;;;;;;18.88;9.57;;;9.50;67.40;;;;;;5076148;28;20049;-75
2021/03/01 10:42:24;;;;;;;14.13;8.98;;;9.60;67.10;;;;;;5072828;28;20032;-74
2021/03/01 10:44:57;;;;;;;16.08;9.93;;;9.50;67.30;;;;;;5072553;28;20385;-74
2021/03/01 10:47:41;;;;;;;16.48;9.50;;;9.60;66.90;;;;;;5077000;28;20477;-74
2021/03/01 10:50:16;;;;;;;16.08;9.93;;;9.90;65.40;;;;;;5079072;28;20051;-73
2021/03/01 10:52:42;;;;;;;15.85;8.50;;;10.10;65.40;;;;;;5090196;28;20035;-73
2021/03/01 10:55:09;;;;;;;18.25;10.43;;;10.10;64.80;;;;;;5080928;28;20028;-74
2021/03/01 10:57:35;;;;;;;16.40;9.30;;;10.10;65.30;;;;;;5074647;28;20044;-74
2021/03/01 11:00:02;;;;;;;15.18;8.40;;;10.20;63.90;;;;;;5073322;28;20036;-74
2021/03/01 11:02:28;;;;;;;14.88;8.95;;;10.30;63.50;;;;;;5076806;28;20049;-73
2021/03/01 11:04:55;;;;;;;15.90;9.60;;;10.40;64.10;;;;;;5072012;28;20040;-73
2021/03/01 11:07:21;;;;;;;14.75;9.38;;;10.50;64.10;;;;;;5072468;28;20036;-73
2021/03/01 11:09:48;;;;;;;14.98;9.40;;;10.70;64.20;;;;;;5072611;28;20036;-73
2021/03/01 11:12:14;;;;;;;13.65;9.07;;;10.80;63.20;;;;;;5074873;28;20035;-74
2021/03/01 11:14:40;;;;;;;14.60;8.50;;;10.80;62.70;;;;;;5108901;28;20023;-74
2021/03/01 11:17:07;;;;;;;14.48;9.40;;;10.90;61.50;;;;;;5072431;28;20091;-74
2021/03/01 11:19:33;;;;;;;15.10;9.35;;;11.00;61.20;;;;;;5071783;28;20036;-74
2021/03/01 11:22:00;;;;;;;12.80;8.15;;;10.90;61.00;;;;;;5077632;28;20393;-74
2021/03/01 11:24:26;;;;;;;14.00;8.23;;;11.00;60.40;;;;;;5089070;28;20512;-74
2021/03/01 11:26:53;;;;;;;12.45;8.52;;;10.90;60.50;;;;;;5071582;28;20655;-74
2021/03/01 11:29:20;;;;;;;13.73;8.02;;;11.10;60.40;;;;;;5074130;28;20032;-74
2021/03/01 11:31:47;;;;;;;13.35;7.97;;;11.20;59.50;;;;;;5079101;28;20035;-74
2021/03/01 11:34:13;;;;;;;12.45;8.10;;;11.20;59.50;;;;;;5072127;28;20450;-74
2021/03/01 11:36:40;;;;;;;12.55;7.95;;;11.20;59.20;;;;;;5071832;28;20115;-74
2021/03/01 11:39:08;;;;;;;12.05;8.55;;;11.40;59.30;;;;;;5072061;28;20049;-73
2021/03/01 11:41:35;;;;;;;11.23;7.55;;;11.40;59.80;;;;;;5080867;28;20402;-74
2021/03/01 11:44:02;;;;;;;16.02;8.25;;;11.50;59.00;;;;;;5072043;28;20477;-74
2021/03/01 11:46:28;;;;;;;10.55;7.20;;;11.40;58.50;;;;;;5079039;28;20032;-75
2021/03/01 11:48:55;;;;;;;11.52;6.75;;;11.60;58.00;;;;;;5072253;28;20032;-74
2021/03/01 11:51:21;;;;;;;13.45;7.95;;;11.70;56.20;;;;;;5072031;28;20377;-74
2021/03/01 11:53:47;;;;;;;13.18;8.50;;;11.90;57.40;;;;;;5071539;28;20029;-75
2021/03/01 11:56:14;;;;;;;13.40;9.13;;;11.90;57.80;;;;;;5071902;28;20029;-75
2021/03/01 11:58:41;;;;;;;12.52;9.05;;;11.90;59.20;;;;;;5082984;28;20039;-74
2021/03/01 12:01:08;;;;;;;11.60;7.07;;;12.10;59.10;;;;;;5096071;28;20032;-74
2021/03/01 12:03:35;;;;;;;10.98;7.03;;;12.20;54.70;;;;;;5079768;28;20405;-75
2021/03/01 12:06:02;;;;;;;10.60;7.40;;;12.20;54.30;;;;;;5089359;28;20031;-74
2021/03/01 12:08:28;;;;;;;13.10;8.90;;;12.30;55.20;;;;;;5074176;28;20028;-73
2021/03/01 12:10:55;;;;;;;12.98;8.27;;;12.30;57.20;;;;;;5078669;28;20032;-74
2021/03/01 12:13:21;;;;;;;13.95;8.88;;;12.40;58.20;;;;;;5080589;28;20051;-75
2021/03/01 12:15:48;;;;;;;15.00;8.75;;;12.50;57.40;;;;;;5077150;28;20362;-75
2021/03/01 12:18:14;;;;;;;15.88;9.38;;;12.70;57.70;;;;;;5072588;28;20370;-74
2021/03/01 12:20:40;;;;;;;14.55;9.13;;;12.80;57.40;;;;;;5090842;28;20024;-73
2021/03/01 12:23:06;;;;;;;12.30;8.48;;;13.00;57.00;;;;;;5078586;28;20060;-74
2021/03/01 12:25:33;;;;;;;14.68;9.82;;;13.00;55.00;;;;;;5077948;28;20032;-75
2021/03/01 12:27:59;;;;;;;13.25;9.18;;;13.00;56.20;;;;;;5075870;28;20473;-74
2021/03/01 12:30:26;;;;;;;11.75;7.90;;;13.00;56.40;;;;;;5087499;28;20058;-75
2021/03/01 12:32:52;;;;;;;15.30;8.43;;;12.90;53.80;;;;;;5090623;28;20040;-74
2021/03/01 12:35:19;;;;;;;14.55;9.63;;;12.80;55.90;;;;;;5075197;28;20024;-75
2021/03/01 12:37:45;;;;;;;16.13;9.85;;;12.80;56.30;;;;;;5088451;28;20035;-74
2021/03/01 12:40:12;;;;;;;11.60;8.68;;;12.60;56.40;;;;;;5075248;28;20040;-74
2021/03/01 12:42:39;;;;;;;15.20;9.07;;;12.60;57.00;;;;;;5074919;28;20039;-75
2021/03/01 12:45:06;;;;;;;11.38;8.95;;;12.80;56.70;;;;;;5082079;28;20032;-74
2021/03/01 12:47:32;;;;;;;14.68;9.35;;;12.90;57.20;;;;;;5077360;28;20027;-74
2021/03/01 12:49:59;;;;;;;13.20;9.35;;;12.80;57.10;;;;;;5080905;28;20035;-75
2021/03/01 12:52:25;;;;;;;13.68;8.40;;;12.70;57.10;;;;;;5082008;28;20040;-74